Accueil
METAR-TAF:

METAR-TAF

Aéroports :

Siegen, Allemagne

latitude: 50-42-28N, longitude: 008-04-59E, altitude: 602 m

Observation

Le bulletin a été fait il y a 35 minutes, à 10:50 UTC
Vent 13 kt de ouest
Température 6°C
Humidité 65%
Pression 1014 hPa
Visibilité 10 km ou plus
Nuages épars à une hauteur de 1800 ft
Nuages fragmentés à une hauteur de 4600 ft

METAR: EDGS 031050Z 27013KT 9999 SCT018 BKN046 06/M00 Q1014

Heure: 13:25 (11:25 UTC)

Prévision

Le bulletin a été fait il y a 3 heures et 25 minutes, à 08:00 UTC
Prévision valable du 03 à 09 UTC au 03 à 18 UTC
Vent 9 kt de ouest/nord-ouest
Visibilité: 9000 m
Nuages fragmentés à une hauteur de 900 ft
Evoluant progressivement
du 03 à 09 UTC au 03 à 12 UTC
Nuages fragmentés à une hauteur de 2000 ft

TAF: EDGS 030800Z 0309/0318 29009KT 9000 BKN009 BECMG 0309/0312 BKN020

Observations et prévisions météorologiques de plus de 4000 aéroports (messages METAR et TAF).

Les stations disponibles sont représentées par des disques jaunes et rouges sur la carte.

Passer la souris dessus pour voir le nom de la station.

Cliquer dessus pour voir les observations et prévisions météorologiques.

Pour changer de carte: cliquez sur les boutons verts avec une croix noire pour zoomer, sur le bouton vert avec un tiret pour effectuer un zoom arrière, ou sur les flèches vertes pour les cartes adjacentes.


METAR-TAF: